createdAt,value
2019-05-29T00:00:45.574Z,9.77
2019-05-29T00:05:51.441Z,8.00
2019-05-29T00:10:57.412Z,13.67
2019-05-29T00:16:03.108Z,14.33
2019-05-29T00:21:08.846Z,15.87
2019-05-29T00:26:14.677Z,10.83
2019-05-29T00:31:22.655Z,11.50
2019-05-29T00:36:28.174Z,13.30
2019-05-29T00:41:33.731Z,15.20
2019-05-29T00:46:39.297Z,14.93
2019-05-29T00:51:44.758Z,14.83
2019-05-29T00:56:51.489Z,17.60
2019-05-29T01:01:57.125Z,15.50
2019-05-29T01:07:03.022Z,17.43
2019-05-29T01:12:08.675Z,15.00
2019-05-29T01:17:15.571Z,9.10
2019-05-29T01:22:22.332Z,9.20
2019-05-29T01:27:27.984Z,11.40
2019-05-29T01:32:34.539Z,9.17
2019-05-29T01:37:40.064Z,10.70
2019-05-29T01:42:45.809Z,10.23
2019-05-29T01:47:51.252Z,7.97
2019-05-29T01:52:57.100Z,12.50
2019-05-29T01:58:02.668Z,12.20
2019-05-29T02:03:08.678Z,12.60
2019-05-29T02:08:14.284Z,9.20
2019-05-29T02:13:19.817Z,8.23
2019-05-29T02:18:25.329Z,8.90
2019-05-29T02:23:30.844Z,11.60
2019-05-29T02:28:36.326Z,6.57
2019-05-29T02:33:41.868Z,4.93
2019-05-29T02:38:47.467Z,3.10
2019-05-29T02:43:52.942Z,4.63
2019-05-29T02:48:58.468Z,3.40
2019-05-29T02:54:04.333Z,4.63
2019-05-29T02:59:10.652Z,4.63
2019-05-29T03:04:16.689Z,5.23
2019-05-29T03:09:24.259Z,5.40
2019-05-29T03:14:31.604Z,6.20
2019-05-29T03:19:37.139Z,6.23
2019-05-29T03:24:42.598Z,5.23
2019-05-29T03:29:48.050Z,6.97
2019-05-29T03:34:53.589Z,4.63
2019-05-29T03:39:59.165Z,4.20
2019-05-29T03:45:07.177Z,7.50
2019-05-29T03:50:15.635Z,5.53
2019-05-29T03:55:20.275Z,6.33
2019-05-29T04:00:29.976Z,9.10
2019-05-29T04:05:37.734Z,4.17
2019-05-29T04:10:43.045Z,5.63
2019-05-29T04:15:49.333Z,11.57
2019-05-29T04:20:55.565Z,4.77
2019-05-29T04:26:02.074Z,5.73
2019-05-29T04:31:07.976Z,6.53
2019-05-29T04:36:13.932Z,8.23
2019-05-29T04:41:19.585Z,4.63
2019-05-29T04:46:25.812Z,4.20
2019-05-29T04:51:33.010Z,4.00
2019-05-29T04:56:39.149Z,3.23
2019-05-29T05:01:44.877Z,5.70
2019-05-29T05:06:50.527Z,5.00
2019-05-29T05:11:56.695Z,3.07
2019-05-29T05:17:02.619Z,6.93
2019-05-29T05:22:08.188Z,2.93
2019-05-29T05:27:13.681Z,6.53
2019-05-29T05:32:19.244Z,3.07
2019-05-29T05:37:24.686Z,3.20
2019-05-29T05:42:31.063Z,5.70
2019-05-29T05:47:49.955Z,3.00
2019-05-29T05:52:43.799Z,3.87
2019-05-29T05:57:49.238Z,7.40
2019-05-29T06:02:54.801Z,8.73
2019-05-29T06:08:00.747Z,4.17
2019-05-29T06:13:06.577Z,3.53
2019-05-29T06:18:21.119Z,3.50
2019-05-29T06:23:19.392Z,3.67
2019-05-29T06:28:24.905Z,5.80
2019-05-29T06:33:30.992Z,7.87
2019-05-29T06:38:37.626Z,4.20
2019-05-29T06:43:44.303Z,6.43
2019-05-29T06:48:59.453Z,4.87
2019-05-29T06:53:57.545Z,6.33
2019-05-29T06:59:03.130Z,4.50
2019-05-29T07:04:12.194Z,7.53
2019-05-29T07:09:16.392Z,5.47
2019-05-29T07:14:21.974Z,4.73
2019-05-29T07:19:47.039Z,4.03
2019-05-29T07:24:34.663Z,4.07
2019-05-29T07:29:41.122Z,4.20
2019-05-29T07:34:58.160Z,9.00
2019-05-29T07:39:54.143Z,3.80
2019-05-29T07:44:59.674Z,6.30
2019-05-29T07:50:07.406Z,4.67
2019-05-29T07:55:14.671Z,5.97
2019-05-29T08:00:20.317Z,4.07
2019-05-29T08:05:25.916Z,6.03
2019-05-29T08:10:34.044Z,9.63
2019-05-29T08:15:54.945Z,3.03
2019-05-29T08:20:48.068Z,5.50
2019-05-29T08:25:53.762Z,5.93
2019-05-29T08:30:59.296Z,5.60
2019-05-29T08:36:05.139Z,3.40
2019-05-29T08:41:11.872Z,6.17
2019-05-29T08:46:17.455Z,4.10
2019-05-29T08:51:23.029Z,3.50
2019-05-29T08:56:28.843Z,4.63
2019-05-29T09:01:34.301Z,4.80
2019-05-29T09:06:40.135Z,3.23
2019-05-29T09:11:47.575Z,1.70
2019-05-29T09:16:53.320Z,3.20
2019-05-29T09:21:59.071Z,2.60
2019-05-29T09:27:05.062Z,3.40
2019-05-29T09:32:10.777Z,6.87
2019-05-29T09:37:17.340Z,6.10
2019-05-29T09:42:23.761Z,3.40
2019-05-29T09:47:29.445Z,3.53
2019-05-29T09:52:35.196Z,3.90
2019-05-29T09:57:40.686Z,2.60
2019-05-29T10:02:46.157Z,3.10
2019-05-29T10:07:51.685Z,4.40
2019-05-29T10:12:58.377Z,2.50
2019-05-29T10:18:08.294Z,2.90
2019-05-29T10:23:11.655Z,3.07
2019-05-29T10:28:17.165Z,3.10
2019-05-29T10:33:22.808Z,4.97
2019-05-29T10:38:28.329Z,3.50
2019-05-29T10:43:34.997Z,4.73
2019-05-29T10:48:40.748Z,2.80
2019-05-29T10:53:47.049Z,3.90
2019-05-29T10:58:58.980Z,5.10
2019-05-29T11:04:00.642Z,2.90
2019-05-29T11:09:07.376Z,3.03
2019-05-29T11:14:13.552Z,4.83
2019-05-29T11:19:19.033Z,3.60
2019-05-29T11:24:25.572Z,3.60
2019-05-29T11:29:31.314Z,3.43
2019-05-29T11:34:38.144Z,4.30
2019-05-29T11:39:43.590Z,3.43
2019-05-29T11:44:49.168Z,3.13
2019-05-29T11:49:55.137Z,5.73
2019-05-29T11:55:04.491Z,3.47
2019-05-29T12:00:19.797Z,3.30
2019-05-29T12:05:19.828Z,2.90
2019-05-29T12:10:25.363Z,3.50
2019-05-29T12:15:33.447Z,6.30
2019-05-29T12:20:38.900Z,3.80
2019-05-29T12:25:44.493Z,2.73
2019-05-29T12:30:50.661Z,2.37
2019-05-29T12:35:57.392Z,4.33
2019-05-29T12:41:03.837Z,4.43
2019-05-29T12:46:09.550Z,2.67
2019-05-29T12:51:15.143Z,4.83
2019-05-29T12:56:20.765Z,2.80
2019-05-29T13:01:26.317Z,2.40
2019-05-29T13:06:31.886Z,4.23
2019-05-29T13:11:37.437Z,2.23
2019-05-29T13:16:44.409Z,4.90
2019-05-29T13:21:50.974Z,2.30
2019-05-29T13:26:57.600Z,2.70
2019-05-29T13:32:05.220Z,2.60
2019-05-29T13:37:10.571Z,2.30
2019-05-29T13:42:16.331Z,2.53
2019-05-29T13:47:21.841Z,1.77
2019-05-29T13:52:27.380Z,1.57
2019-05-29T13:57:32.968Z,1.50
2019-05-29T14:02:38.509Z,1.33
2019-05-29T14:07:45.504Z,3.30
2019-05-29T14:12:51.562Z,1.80
2019-05-29T14:18:00.589Z,8.20
2019-05-29T14:23:09.593Z,1.40
2019-05-29T14:28:15.467Z,2.60
2019-05-29T14:33:20.990Z,2.27
2019-05-29T14:38:26.908Z,2.30
2019-05-29T14:43:32.599Z,4.53
2019-05-29T14:48:38.218Z,1.40
2019-05-29T14:53:43.839Z,1.40
2019-05-29T14:58:49.332Z,2.03
2019-05-29T15:03:54.770Z,2.13
2019-05-29T15:09:00.346Z,2.30
2019-05-29T15:14:06.591Z,1.10
2019-05-29T15:19:13.330Z,1.80
2019-05-29T15:24:19.032Z,1.37
2019-05-29T15:29:25.596Z,2.17
2019-05-29T15:34:31.133Z,2.90
2019-05-29T15:39:36.789Z,1.87
2019-05-29T15:45:41.895Z,2.50
2019-05-29T15:50:47.555Z,4.47
2019-05-29T15:55:53.169Z,2.10
2019-05-29T16:00:58.694Z,5.97
2019-05-29T16:06:04.622Z,1.73
2019-05-29T16:11:10.602Z,1.30
2019-05-29T16:16:17.323Z,1.40
2019-05-29T16:21:24.395Z,1.03
2019-05-29T16:26:29.956Z,1.03
2019-05-29T16:31:35.550Z,1.43
2019-05-29T16:36:41.196Z,3.07
2019-05-29T16:41:46.718Z,1.30
2019-05-29T16:46:52.420Z,1.53
2019-05-29T16:51:58.128Z,2.17
2019-05-29T16:57:03.959Z,2.40
2019-05-29T17:02:10.405Z,4.77
2019-05-29T17:07:16.484Z,1.70
2019-05-29T17:12:22.576Z,1.27
2019-05-29T17:17:30.531Z,1.33
2019-05-29T17:22:37.847Z,1.33
2019-05-29T17:27:44.023Z,1.30
2019-05-29T17:32:51.347Z,1.10
2019-05-29T17:37:56.978Z,1.00
2019-05-29T17:43:05.536Z,1.53
2019-05-29T17:48:11.368Z,1.37
2019-05-29T17:53:17.856Z,1.77
2019-05-29T17:58:25.036Z,1.33
2019-05-29T18:03:31.437Z,2.03
2019-05-29T18:08:37.201Z,2.23
2019-05-29T18:13:43.169Z,5.13
2019-05-29T18:18:50.360Z,1.80
2019-05-29T18:23:58.323Z,2.97
2019-05-29T18:29:05.357Z,2.03
2019-05-29T18:34:11.348Z,1.97
2019-05-29T18:39:20.144Z,2.90
2019-05-29T18:44:28.938Z,1.90
2019-05-29T18:49:34.953Z,2.50
2019-05-29T18:54:40.935Z,2.43
2019-05-29T18:59:48.994Z,1.80
2019-05-29T19:04:56.570Z,6.00
2019-05-29T19:10:06.198Z,4.77
2019-05-29T19:15:12.459Z,3.43
2019-05-29T19:20:22.127Z,4.70
2019-05-29T19:25:33.065Z,2.40
2019-05-29T19:30:38.743Z,4.83
2019-05-29T19:35:45.003Z,3.00
2019-05-29T19:40:52.041Z,2.63
2019-05-29T19:46:00.175Z,5.47
2019-05-29T19:51:10.346Z,2.13
2019-05-29T19:56:18.268Z,2.53
2019-05-29T20:01:32.185Z,2.63
2019-05-29T20:12:56.144Z,3.40
2019-05-29T20:18:05.076Z,2.50
2019-05-29T20:23:12.194Z,2.43
2019-05-29T20:28:18.867Z,2.00
2019-05-29T20:33:24.607Z,2.33
2019-05-29T20:38:33.157Z,4.00
2019-05-29T20:43:39.749Z,2.80
2019-05-29T20:48:45.636Z,5.70
2019-05-29T20:53:53.553Z,5.47
2019-05-29T20:59:00.765Z,3.83
2019-05-29T21:04:07.116Z,4.60
2019-05-29T21:09:13.067Z,7.23
2019-05-29T21:14:18.730Z,7.20
2019-05-29T21:19:24.278Z,16.80
2019-05-29T21:24:29.861Z,14.97
2019-05-29T21:29:35.684Z,8.47
2019-05-29T21:34:41.916Z,7.07
2019-05-29T21:39:47.725Z,5.47
2019-05-29T21:44:53.292Z,6.80
2019-05-29T21:49:58.764Z,3.90
2019-05-29T21:55:04.889Z,8.20
2019-05-29T22:00:14.055Z,8.33
2019-05-29T22:05:21.158Z,10.83
2019-05-29T22:10:27.917Z,7.10
2019-05-29T22:15:33.471Z,5.60
2019-05-29T22:20:39.016Z,10.47
2019-05-29T22:25:44.601Z,9.23
2019-05-29T22:30:51.243Z,3.73
2019-05-29T22:35:57.510Z,3.70
2019-05-29T22:41:03.057Z,4.67
2019-05-29T22:46:08.650Z,5.73
2019-05-29T22:51:14.201Z,4.77
2019-05-29T22:56:19.821Z,3.53
2019-05-29T23:01:25.416Z,4.10
2019-05-29T23:06:30.967Z,5.47
2019-05-29T23:11:36.985Z,3.63
2019-05-29T23:16:42.570Z,3.07
2019-05-29T23:21:48.155Z,3.20
2019-05-29T23:26:54.900Z,3.40
2019-05-29T23:32:03.148Z,4.73
2019-05-29T23:37:13.594Z,6.67
2019-05-29T23:42:17.763Z,5.03
2019-05-29T23:47:23.875Z,2.80
2019-05-29T23:52:30.641Z,4.83
2019-05-29T23:57:36.151Z,5.80
